Terminal Aerodrome Forecast
Issued by NWS

Home | Current Version | Previous Version | Text Only | Print | Product List | Glossary On
Versions: 1 2 3 4 5 6 7 8 9 10 11 12 13 14 15 16 17 18
000
FTUS45 KRIW 211120
TAFJAC
TAF
KJAC 211120Z 2112/2212 18008KT P6SM VCSH FEW006 SCT018 OVC040
     FM211400 20011KT P6SM SCT020 BKN045
     FM211800 20015G25KT P6SM VCSH SCT040 BKN080
     FM220100 20013G20KT 5SM -SN SCT012 OVC025
      AMD LTD TO CLD VIS AND WIND=

USA.gov is the U.S. government's official web portal to all federal, state and local government web resources and services.